Overview Statistics Trail Chart Weather Telemetry Raw packets
 

This is the latest recevied weather packets stored in our database for station/object WX5KDM. If no packets are shown the sender has not sent any weather packets the latest 10 day(s).

<< 72 73 74 75 76 77 78 >>
Time Temp. Humidity Pressure Rain* Wind** Luminosity Snow
1788103101 30° C 73% 1020.6 hPa 0 mm - - -
1788102800 30.56° C 72% 1020.6 hPa 0 mm - - -
1788102496 30° C 74% 1020.7 hPa 0 mm - - -
1788102195 30° C 75% 1020.7 hPa 0 mm - - -
1788101890 29.44° C 76% 1020.5 hPa 0 mm - - -
1788101585 29.44° C 77% 1020.7 hPa 0 mm - - -
1788101280 29.44° C 78% 1020.7 hPa 0 mm - - -
1788100976 29.44° C 77% 1020.7 hPa 0 mm - - -
1788100672 29.44° C 77% 1020.8 hPa 0 mm - - -
1788100371 28.33° C 82% 1020.7 hPa 0 mm - - -
1788100065 28.33° C 82% 1020.4 hPa 0 mm - - -
1788099760 28.33° C 82% 1020.6 hPa 0 mm - - -
1788099455 27.78° C 82% 1020.5 hPa 0 mm - - -
1788099150 27.78° C 83% 1020.5 hPa 0 mm - - -
1788098845 27.78° C 82% 1020.7 hPa 0 mm - - -
1788098540 27.78° C 82% 1020.6 hPa 0 mm - - -
1788098235 27.78° C 82% 1020.7 hPa 0 mm - - -
1788097930 28.33° C 82% 1020.7 hPa 0 mm - - -
1788097626 27.78° C 82% 1020.8 hPa 0 mm - - -
1788097321 27.78° C 82% 1020.8 hPa 0 mm - - -
1788097016 26.67° C 85% 1020.6 hPa 0 mm - - -
1788096712 26.67° C 86% 1020.6 hPa 0 mm - - -
1788096408 26.67° C 87% 1020.8 hPa 0 mm - - -
1788096103 26.11° C 88% 1020.5 hPa 0 mm - - -
1788095802 25.56° C 88% 1020.5 hPa 0 mm - - -

* Rain latest hour (hover to see other rain measurements)
** Current wind speed in m/s (hover to see current wind gust speed)